createdAt,value
2023-02-16T00:02:10.578Z,102154.81
2023-02-16T00:04:43.103Z,102155.75
2023-02-16T00:07:15.655Z,102146.75
2023-02-16T00:09:48.214Z,102149.31
2023-02-16T00:12:40.355Z,102158.13
2023-02-16T00:15:19.596Z,102152.13
2023-02-16T00:17:54.634Z,102154.72
2023-02-16T00:20:27.812Z,102155.47
2023-02-16T00:23:00.372Z,102148.31
2023-02-16T00:25:33.000Z,102140.34
2023-02-16T00:28:15.926Z,102150.59
2023-02-16T00:30:50.538Z,102147.97
2023-02-16T00:33:23.235Z,102153.91
2023-02-16T00:35:55.749Z,102147.16
2023-02-16T00:38:28.304Z,102149.69
2023-02-16T00:41:01.039Z,102146.09
2023-02-16T00:43:33.719Z,102149.50
2023-02-16T00:46:06.360Z,102149.19
2023-02-16T00:48:38.931Z,102136.31
2023-02-16T00:51:25.201Z,102145.88
2023-02-16T00:53:58.165Z,102142.50
2023-02-16T00:56:30.708Z,102141.50
2023-02-16T00:59:07.656Z,102146.63
2023-02-16T01:01:40.263Z,102142.56
2023-02-16T01:04:22.340Z,102137.13
2023-02-16T01:07:13.712Z,102131.00
2023-02-16T01:10:04.949Z,102137.81
2023-02-16T01:12:37.520Z,102128.03
2023-02-16T01:15:14.781Z,102129.81
2023-02-16T01:17:47.374Z,102138.81
2023-02-16T01:20:24.686Z,102124.56
2023-02-16T01:22:57.555Z,102136.78
2023-02-16T01:25:30.457Z,102136.78
2023-02-16T01:28:03.538Z,102134.84
2023-02-16T01:30:36.038Z,102128.09
2023-02-16T01:33:08.808Z,102128.00
2023-02-16T01:35:41.796Z,102124.56
2023-02-16T01:38:24.509Z,102110.56
2023-02-16T01:41:31.827Z,102107.13
2023-02-16T01:44:33.434Z,102097.28
2023-02-16T01:47:38.077Z,102097.16
2023-02-16T01:50:22.201Z,102085.81
2023-02-16T01:53:04.268Z,102088.56
2023-02-16T01:55:43.368Z,102085.94
2023-02-16T01:58:40.817Z,102084.25
2023-02-16T02:01:38.466Z,102078.16
2023-02-16T02:05:02.147Z,102094.53
2023-02-16T02:08:07.570Z,102089.28
2023-02-16T02:10:58.182Z,102088.34
2023-02-16T02:13:52.695Z,102081.47
2023-02-16T02:16:28.352Z,102081.28
2023-02-16T02:19:01.265Z,102085.72
2023-02-16T02:22:26.920Z,102082.16
2023-02-16T02:25:26.551Z,102072.59
2023-02-16T02:28:31.458Z,102075.22
2023-02-16T02:31:22.090Z,102066.50
2023-02-16T02:34:17.173Z,102067.31
2023-02-16T02:37:07.676Z,102069.09
2023-02-16T02:40:10.079Z,102070.72
2023-02-16T02:43:07.741Z,102054.25
2023-02-16T02:45:49.669Z,102062.13
2023-02-16T02:48:22.502Z,102049.88
2023-02-16T02:51:30.495Z,102052.53
2023-02-16T02:54:30.521Z,102038.50
2023-02-16T02:57:27.321Z,102039.50
2023-02-16T03:00:31.408Z,102041.22
2023-02-16T03:03:32.806Z,102041.41
2023-02-16T03:06:25.756Z,102029.94
2023-02-16T03:09:11.408Z,102042.38
2023-02-16T03:12:05.778Z,102044.13
2023-02-16T03:14:48.156Z,102034.31
2023-02-16T03:17:48.496Z,102037.63
2023-02-16T03:20:40.322Z,102027.06
2023-02-16T03:23:31.759Z,102031.66
2023-02-16T03:26:23.178Z,102039.31
2023-02-16T03:29:15.450Z,102037.41
2023-02-16T03:31:49.733Z,102024.28
2023-02-16T03:34:24.246Z,102028.50
2023-02-16T03:37:00.722Z,102032.59
2023-02-16T03:39:53.736Z,102028.44
2023-02-16T03:42:26.325Z,102030.38
2023-02-16T03:44:58.956Z,102018.84
2023-02-16T03:47:31.584Z,102018.59
2023-02-16T03:50:04.463Z,102012.63
2023-02-16T03:52:36.921Z,102018.03
2023-02-16T03:55:09.814Z,102020.47
2023-02-16T03:57:42.377Z,102025.28
2023-02-16T04:00:15.355Z,102022.66
2023-02-16T04:02:47.888Z,102020.09
2023-02-16T04:05:20.473Z,102030.53
2023-02-16T04:07:53.118Z,102030.78
2023-02-16T04:10:25.799Z,102022.09
2023-02-16T04:12:58.362Z,102019.22
2023-02-16T04:15:31.030Z,102029.94
2023-02-16T04:18:03.921Z,102021.06
2023-02-16T04:20:36.421Z,102030.63
2023-02-16T04:23:09.084Z,102021.06
2023-02-16T04:25:41.563Z,102031.56
2023-02-16T04:28:14.087Z,102029.78
2023-02-16T04:30:46.638Z,102031.63
2023-02-16T04:33:19.211Z,102038.25
2023-02-16T04:35:51.759Z,102035.09
2023-02-16T04:38:25.997Z,102039.56
2023-02-16T04:40:58.579Z,102030.13
2023-02-16T04:43:32.493Z,102022.22
2023-02-16T04:46:05.237Z,102029.09
2023-02-16T04:48:37.763Z,102023.31
2023-02-16T04:51:10.301Z,102022.56
2023-02-16T04:53:42.840Z,102031.47
2023-02-16T04:56:15.877Z,102024.47
2023-02-16T04:58:48.424Z,102031.59
2023-02-16T05:01:27.013Z,102037.81
2023-02-16T05:03:59.548Z,102035.44
2023-02-16T05:06:32.215Z,102036.25
2023-02-16T05:09:06.566Z,102026.84
2023-02-16T05:11:57.956Z,102025.06
2023-02-16T05:14:45.097Z,102013.81
2023-02-16T05:17:22.138Z,102018.88
2023-02-16T05:19:59.884Z,102017.56
2023-02-16T05:22:34.416Z,102026.34
2023-02-16T05:25:07.726Z,102012.63
2023-02-16T05:27:40.334Z,102005.53
2023-02-16T05:30:14.038Z,102012.44
2023-02-16T05:32:46.567Z,102032.66
2023-02-16T05:35:19.071Z,102031.03
2023-02-16T05:37:51.615Z,102008.50
2023-02-16T05:40:24.200Z,101992.69
2023-02-16T05:42:56.757Z,101995.53
2023-02-16T05:45:29.328Z,102007.09
2023-02-16T05:48:02.071Z,101999.16
2023-02-16T05:50:34.577Z,101998.97
2023-02-16T05:53:07.159Z,102017.25
2023-02-16T05:55:39.817Z,102015.59
2023-02-16T05:58:12.304Z,102004.09
2023-02-16T06:00:44.817Z,102008.81
2023-02-16T06:03:17.324Z,102021.84
2023-02-16T06:05:55.353Z,102004.38
2023-02-16T06:08:29.278Z,101995.69
2023-02-16T06:11:02.479Z,102007.19
2023-02-16T06:13:35.227Z,101997.66
2023-02-16T06:16:07.988Z,101988.97
2023-02-16T06:18:40.542Z,101986.94
2023-02-16T06:21:13.098Z,101995.81
2023-02-16T06:23:45.688Z,101999.38
2023-02-16T06:26:18.327Z,101985.09
2023-02-16T06:28:50.936Z,101985.41
2023-02-16T06:31:24.932Z,102005.63
2023-02-16T06:33:57.655Z,102009.13
2023-02-16T06:36:30.386Z,102015.13
2023-02-16T06:39:03.288Z,102017.75
2023-02-16T06:41:39.875Z,102014.44
2023-02-16T06:44:15.526Z,102020.38
2023-02-16T06:46:48.683Z,102016.09
2023-02-16T06:49:22.360Z,102015.72
2023-02-16T06:51:55.186Z,102029.03
2023-02-16T06:54:27.786Z,102037.81
2023-02-16T06:57:00.305Z,102039.88
2023-02-16T06:59:32.838Z,102042.44
2023-02-16T07:02:06.159Z,102037.38
2023-02-16T07:04:38.616Z,102029.41
2023-02-16T07:07:11.178Z,102030.28
2023-02-16T07:09:44.303Z,102034.97
2023-02-16T07:12:16.787Z,102051.53
2023-02-16T07:14:49.322Z,102045.50
2023-02-16T07:17:21.868Z,102041.03
2023-02-16T07:19:54.585Z,102039.44
2023-02-16T07:22:27.231Z,102032.47
2023-02-16T07:25:00.652Z,102036.97
2023-02-16T07:27:33.192Z,102035.38
2023-02-16T07:30:06.624Z,102044.91
2023-02-16T07:32:39.096Z,102039.72
2023-02-16T07:35:11.742Z,102049.75
2023-02-16T07:37:44.295Z,102043.69
2023-02-16T07:40:16.875Z,102039.16
2023-02-16T07:42:49.603Z,102033.94
2023-02-16T07:45:22.185Z,102031.31
2023-02-16T07:47:54.691Z,102049.59
2023-02-16T07:50:27.489Z,102055.00
2023-02-16T07:53:02.791Z,102053.09
2023-02-16T07:55:40.723Z,102056.47
2023-02-16T07:58:27.295Z,102051.00
2023-02-16T08:01:13.087Z,102046.47
2023-02-16T08:03:47.651Z,102049.31
2023-02-16T08:06:20.517Z,102036.97
2023-02-16T08:08:53.448Z,102041.22
2023-02-16T08:11:26.306Z,102045.75
2023-02-16T08:14:00.369Z,102045.84
2023-02-16T08:16:32.979Z,102041.44
2023-02-16T08:19:05.515Z,102053.63
2023-02-16T08:21:39.169Z,102051.91
2023-02-16T08:24:13.207Z,102059.75
2023-02-16T08:26:49.663Z,102051.00
2023-02-16T08:29:24.073Z,102065.03
2023-02-16T08:31:57.242Z,102076.47
2023-02-16T08:34:30.478Z,102069.63
2023-02-16T08:37:03.079Z,102074.19
2023-02-16T08:39:35.773Z,102070.91
2023-02-16T08:42:12.100Z,102068.97
2023-02-16T08:44:44.702Z,102062.91
2023-02-16T08:47:18.373Z,102068.34
2023-02-16T08:49:50.976Z,102065.88
2023-02-16T08:52:23.486Z,102063.41
2023-02-16T08:54:55.966Z,102063.50
2023-02-16T08:57:28.447Z,102074.06
2023-02-16T09:00:19.782Z,102079.47
2023-02-16T09:02:52.327Z,102088.06
2023-02-16T09:05:24.930Z,102094.41
2023-02-16T09:07:57.736Z,102094.44
2023-02-16T09:10:30.341Z,102095.47
2023-02-16T09:13:03.379Z,102106.06
2023-02-16T09:15:38.473Z,102102.56
2023-02-16T09:18:15.190Z,102108.00
2023-02-16T09:20:47.708Z,102091.38
2023-02-16T09:23:21.905Z,102100.16
2023-02-16T09:25:54.458Z,102107.06
2023-02-16T09:28:26.957Z,102096.47
2023-02-16T09:31:00.073Z,102101.72
2023-02-16T09:33:34.944Z,102096.44
2023-02-16T09:36:10.836Z,102091.06
2023-02-16T09:38:43.615Z,102080.75
2023-02-16T09:41:40.387Z,102076.97
2023-02-16T09:44:30.259Z,102081.63
2023-02-16T09:47:11.515Z,102071.91
2023-02-16T09:49:45.883Z,102080.41
2023-02-16T09:52:35.981Z,102081.50
2023-02-16T09:55:15.235Z,102089.47
2023-02-16T09:58:08.068Z,102094.63
2023-02-16T10:00:51.059Z,102092.31
2023-02-16T10:04:16.678Z,102089.50
2023-02-16T10:07:20.285Z,102080.75
2023-02-16T10:09:56.922Z,102085.03
2023-02-16T10:12:39.970Z,102092.09
2023-02-16T10:15:22.308Z,102089.47
2023-02-16T10:18:01.365Z,102083.28
2023-02-16T10:20:46.494Z,102088.47
2023-02-16T10:23:47.704Z,102088.56
2023-02-16T10:26:47.079Z,102086.91
2023-02-16T10:29:22.208Z,102082.63
2023-02-16T10:32:37.271Z,102080.00
2023-02-16T10:35:20.513Z,102079.06
2023-02-16T10:38:11.701Z,102076.72
2023-02-16T10:41:05.006Z,102073.03
2023-02-16T10:43:55.690Z,102086.28
2023-02-16T10:47:00.218Z,102089.06
2023-02-16T10:49:36.769Z,102089.94
2023-02-16T10:52:11.599Z,102094.28
2023-02-16T10:54:44.198Z,102093.28
2023-02-16T10:57:28.833Z,102102.09
2023-02-16T11:00:11.531Z,102124.59
2023-02-16T11:02:48.252Z,102102.84
2023-02-16T11:05:27.152Z,102095.78
2023-02-16T11:08:01.601Z,102102.59
2023-02-16T11:10:41.148Z,102099.94
2023-02-16T11:13:34.344Z,102098.34
2023-02-16T11:16:19.328Z,102092.16
2023-02-16T11:19:21.548Z,102073.72
2023-02-16T11:21:56.429Z,102071.13
2023-02-16T11:24:33.718Z,102066.59
2023-02-16T11:27:21.322Z,102065.84
2023-02-16T11:30:22.448Z,102059.72
2023-02-16T11:32:56.574Z,102062.47
2023-02-16T11:35:40.927Z,102066.22
2023-02-16T11:38:31.445Z,102057.56
2023-02-16T11:41:07.219Z,102048.81
2023-02-16T11:43:43.008Z,102040.00
2023-02-16T11:46:20.630Z,102043.59
2023-02-16T11:48:53.706Z,102041.75
2023-02-16T11:51:34.805Z,102039.25
2023-02-16T11:54:16.218Z,102034.84
2023-02-16T11:57:11.059Z,102035.78
2023-02-16T11:59:43.639Z,102019.88
2023-02-16T12:02:43.451Z,102026.06
2023-02-16T12:05:34.267Z,102017.25
2023-02-16T12:08:27.837Z,102018.97
2023-02-16T12:11:43.492Z,102018.09
2023-02-16T12:14:48.724Z,102025.16
2023-02-16T12:17:49.629Z,102023.34
2023-02-16T12:20:56.872Z,102014.50
2023-02-16T12:23:38.811Z,102017.19
2023-02-16T12:26:34.337Z,102001.13
2023-02-16T12:29:20.934Z,101992.41
2023-02-16T12:32:17.659Z,101985.31
2023-02-16T12:35:32.006Z,101987.09
2023-02-16T12:38:58.517Z,101989.75
2023-02-16T12:42:17.566Z,101985.41
2023-02-16T12:45:09.115Z,101974.81
2023-02-16T12:47:54.338Z,101965.13
2023-02-16T12:50:34.326Z,101962.47
2023-02-16T12:53:20.254Z,101965.13
2023-02-16T12:56:12.484Z,101951.06
2023-02-16T12:58:53.392Z,101954.53
2023-02-16T13:01:33.812Z,101958.09
2023-02-16T13:04:20.504Z,101951.91
2023-02-16T13:07:08.335Z,101962.50
2023-02-16T13:10:04.305Z,101951.03
2023-02-16T13:12:51.884Z,101935.94
2023-02-16T13:15:37.877Z,101942.06
2023-02-16T13:18:38.341Z,101927.94
2023-02-16T13:21:50.447Z,101926.03
2023-02-16T13:25:00.023Z,101928.75
2023-02-16T13:27:54.364Z,101918.88
2023-02-16T13:31:04.699Z,101902.84
2023-02-16T13:34:12.407Z,101898.34
2023-02-16T13:37:07.562Z,101894.75
2023-02-16T13:40:18.724Z,101885.88
2023-02-16T13:43:29.440Z,101892.88
2023-02-16T13:46:14.964Z,101889.84
2023-02-16T13:48:53.405Z,101882.72
2023-02-16T13:51:40.499Z,101879.03
2023-02-16T13:54:34.423Z,101868.09
2023-02-16T13:57:15.038Z,101871.88
2023-02-16T13:59:57.974Z,101866.25
2023-02-16T14:03:12.151Z,101861.97
2023-02-16T14:05:48.149Z,101864.31
2023-02-16T14:08:28.036Z,101858.28
2023-02-16T14:11:08.614Z,101845.22
2023-02-16T14:13:50.064Z,101853.22
2023-02-16T14:16:32.485Z,101846.63
2023-02-16T14:19:23.052Z,101849.56
2023-02-16T14:21:55.797Z,101844.09
2023-02-16T14:24:38.403Z,101843.31
2023-02-16T14:27:13.297Z,101837.06
2023-02-16T14:30:02.628Z,101836.25
2023-02-16T14:32:39.853Z,101839.34
2023-02-16T14:35:37.275Z,101832.06
2023-02-16T14:38:29.316Z,101834.69
2023-02-16T14:41:08.694Z,101833.75
2023-02-16T14:43:47.917Z,101831.19
2023-02-16T14:46:39.662Z,101821.16
2023-02-16T14:50:09.331Z,101817.81
2023-02-16T14:53:36.183Z,101816.94
2023-02-16T14:56:38.632Z,101811.38
2023-02-16T14:59:42.631Z,101815.59
2023-02-16T15:02:31.435Z,101807.56
2023-02-16T15:05:23.058Z,101816.38
2023-02-16T15:08:16.368Z,101818.06
2023-02-16T15:10:55.831Z,101803.13
2023-02-16T15:13:31.311Z,101810.34
2023-02-16T15:16:05.627Z,101810.13
2023-02-16T15:18:44.076Z,101807.44
2023-02-16T15:21:28.296Z,101807.66
2023-02-16T15:24:01.527Z,101813.81
2023-02-16T15:26:36.192Z,101812.44
2023-02-16T15:29:29.302Z,101812.22
2023-02-16T15:32:06.793Z,101805.91
2023-02-16T15:34:41.066Z,101803.50
2023-02-16T15:37:36.836Z,101805.78
2023-02-16T15:40:26.633Z,101806.06
2023-02-16T15:43:33.769Z,101799.78
2023-02-16T15:46:16.002Z,101799.19
2023-02-16T15:48:50.463Z,101808.03
2023-02-16T15:51:34.108Z,101813.94
2023-02-16T15:54:35.541Z,101813.25
2023-02-16T15:57:24.540Z,101804.50
2023-02-16T16:00:04.033Z,101807.28
2023-02-16T16:02:41.239Z,101798.41
2023-02-16T16:05:33.220Z,101799.72
2023-02-16T16:08:11.144Z,101808.56
2023-02-16T16:10:46.442Z,101801.81
2023-02-16T16:13:28.603Z,101809.72
2023-02-16T16:16:02.774Z,101813.28
2023-02-16T16:18:40.377Z,101815.44
2023-02-16T16:21:33.914Z,101813.59
2023-02-16T16:24:10.888Z,101814.69
2023-02-16T16:26:55.283Z,101817.41
2023-02-16T16:29:47.560Z,101820.09
2023-02-16T16:32:28.905Z,101816.50
2023-02-16T16:35:01.516Z,101812.25
2023-02-16T16:37:37.027Z,101815.78
2023-02-16T16:40:18.538Z,101821.06
2023-02-16T16:43:03.283Z,101816.75
2023-02-16T16:45:46.540Z,101813.31
2023-02-16T16:48:31.494Z,101815.97
2023-02-16T16:51:21.328Z,101807.88
2023-02-16T16:54:02.061Z,101817.69
2023-02-16T16:56:38.831Z,101815.13
2023-02-16T16:59:11.366Z,101820.41
2023-02-16T17:01:46.040Z,101821.34
2023-02-16T17:04:18.733Z,101817.81
2023-02-16T17:06:51.303Z,101814.25
2023-02-16T17:09:23.862Z,101828.41
2023-02-16T17:11:56.332Z,101825.78
2023-02-16T17:14:28.864Z,101821.34
2023-02-16T17:17:01.711Z,101816.09
2023-02-16T17:19:34.352Z,101816.09
2023-02-16T17:22:14.119Z,101815.19
2023-02-16T17:24:47.548Z,101812.53
2023-02-16T17:27:20.058Z,101806.34
2023-02-16T17:29:52.539Z,101809.06
2023-02-16T17:32:25.102Z,101798.44
2023-02-16T17:34:57.652Z,101807.28
2023-02-16T17:37:35.576Z,101798.44
2023-02-16T17:40:19.554Z,101807.19
2023-02-16T17:42:52.376Z,101808.16
2023-02-16T17:45:24.962Z,101802.84
2023-02-16T17:47:57.489Z,101802.91
2023-02-16T17:50:32.698Z,101797.59
2023-02-16T17:53:12.882Z,101792.28
2023-02-16T17:55:48.043Z,101792.22
2023-02-16T17:58:23.457Z,101801.88
2023-02-16T18:00:56.021Z,101809.00
2023-02-16T18:03:28.650Z,101802.00
2023-02-16T18:06:01.184Z,101798.41
2023-02-16T18:08:33.762Z,101791.38
2023-02-16T18:11:06.438Z,101785.13
2023-02-16T18:13:39.048Z,101779.88
2023-02-16T18:16:18.854Z,101786.00
2023-02-16T18:18:51.396Z,101796.56
2023-02-16T18:21:24.455Z,101794.03
2023-02-16T18:23:56.976Z,101796.72
2023-02-16T18:26:33.345Z,101797.50
2023-02-16T18:29:05.925Z,101791.38
2023-02-16T18:31:42.135Z,101797.56
2023-02-16T18:34:14.691Z,101789.56
2023-02-16T18:36:47.278Z,101797.44
2023-02-16T18:39:19.776Z,101795.72
2023-02-16T18:41:52.330Z,101796.63
2023-02-16T18:44:24.894Z,101789.56
2023-02-16T18:46:57.411Z,101790.47
2023-02-16T18:49:30.152Z,101779.91
2023-02-16T18:52:02.700Z,101781.66
2023-02-16T18:54:35.462Z,101777.22
2023-02-16T18:57:07.987Z,101767.53
2023-02-16T18:59:41.117Z,101771.09
2023-02-16T19:02:13.682Z,101778.13
2023-02-16T19:04:46.293Z,101780.78
2023-02-16T19:07:19.210Z,101775.44
2023-02-16T19:09:51.778Z,101770.25
2023-02-16T19:12:24.694Z,101777.28
2023-02-16T19:14:57.267Z,101770.19
2023-02-16T19:17:29.753Z,101777.31
2023-02-16T19:20:02.407Z,101774.56
2023-02-16T19:22:37.170Z,101771.06
2023-02-16T19:25:09.831Z,101774.66
2023-02-16T19:27:43.548Z,101776.44
2023-02-16T19:30:16.322Z,101764.97
2023-02-16T19:32:49.056Z,101771.16
2023-02-16T19:35:21.741Z,101761.47
2023-02-16T19:37:54.459Z,101770.31
2023-02-16T19:40:27.063Z,101769.44
2023-02-16T19:42:59.663Z,101781.75
2023-02-16T19:45:32.229Z,101783.53
2023-02-16T19:48:05.158Z,101787.94
2023-02-16T19:50:37.804Z,101792.38
2023-02-16T19:53:10.419Z,101788.81
2023-02-16T19:55:43.356Z,101795.03
2023-02-16T19:58:15.863Z,101778.25
2023-02-16T20:00:48.851Z,101787.09
2023-02-16T20:03:21.478Z,101785.31
2023-02-16T20:05:54.023Z,101779.16
2023-02-16T20:08:26.587Z,101771.22
2023-02-16T20:10:59.493Z,101773.88
2023-02-16T20:13:32.084Z,101765.91
2023-02-16T20:16:07.943Z,101767.69
2023-02-16T20:18:41.979Z,101772.97
2023-02-16T20:21:19.302Z,101782.69
2023-02-16T20:23:57.552Z,101773.00
2023-02-16T20:26:35.221Z,101766.84
2023-02-16T20:29:12.534Z,101770.31
2023-02-16T20:31:55.450Z,101774.75
2023-02-16T20:34:28.268Z,101780.94
2023-02-16T20:37:00.799Z,101787.06
2023-02-16T20:39:33.408Z,101781.78
2023-02-16T20:42:06.023Z,101786.16
2023-02-16T20:44:38.844Z,101773.81
2023-02-16T20:47:11.432Z,101771.22
2023-02-16T20:49:44.263Z,101770.31
2023-02-16T20:52:16.964Z,101760.63
2023-02-16T20:54:49.511Z,101764.16
2023-02-16T20:57:27.042Z,101754.47
2023-02-16T21:00:00.235Z,101756.22
2023-02-16T21:02:32.763Z,101755.31
2023-02-16T21:05:08.602Z,101746.50
2023-02-16T21:07:41.170Z,101748.28
2023-02-16T21:10:15.180Z,101743.03
2023-02-16T21:12:47.811Z,101748.25
2023-02-16T21:15:20.407Z,101744.72
2023-02-16T21:17:52.982Z,101744.72
2023-02-16T21:20:25.857Z,101746.47
2023-02-16T21:22:58.379Z,101737.69
2023-02-16T21:25:30.990Z,101745.56
2023-02-16T21:28:04.118Z,101741.09
2023-02-16T21:30:37.068Z,101749.09
2023-02-16T21:33:10.077Z,101739.44
2023-02-16T21:35:42.702Z,101735.75
2023-02-16T21:38:16.797Z,101751.66
2023-02-16T21:41:07.892Z,101755.22
2023-02-16T21:43:40.455Z,101736.59
2023-02-16T21:46:13.082Z,101733.94
2023-02-16T21:48:46.412Z,101736.56
2023-02-16T21:51:24.282Z,101737.47
2023-02-16T21:53:58.489Z,101730.34
2023-02-16T21:56:37.441Z,101743.69
2023-02-16T21:59:13.999Z,101736.66
2023-02-16T22:01:53.231Z,101739.31
2023-02-16T22:04:25.796Z,101737.41
2023-02-16T22:06:58.296Z,101724.22
2023-02-16T22:09:30.880Z,101740.09
2023-02-16T22:12:03.500Z,101732.09
2023-02-16T22:14:36.039Z,101736.50
2023-02-16T22:17:08.758Z,101729.38
2023-02-16T22:19:41.379Z,101725.91
2023-02-16T22:22:13.961Z,101720.53
2023-02-16T22:24:47.197Z,101717.09
2023-02-16T22:27:19.836Z,101710.84
2023-02-16T22:29:52.422Z,101704.84
2023-02-16T22:32:24.966Z,101702.13
2023-02-16T22:34:57.727Z,101709.94
2023-02-16T22:37:33.182Z,101711.63
2023-02-16T22:40:06.617Z,101707.16
2023-02-16T22:42:39.233Z,101709.84
2023-02-16T22:45:11.803Z,101714.31
2023-02-16T22:47:44.388Z,101720.59
2023-02-16T22:50:17.007Z,101718.78
2023-02-16T22:52:49.582Z,101710.75
2023-02-16T22:55:22.169Z,101707.28
2023-02-16T22:57:54.845Z,101715.22
2023-02-16T23:00:27.933Z,101711.63
2023-02-16T23:03:00.530Z,101717.78
2023-02-16T23:05:33.027Z,101716.97
2023-02-16T23:08:05.989Z,101716.06
2023-02-16T23:10:40.573Z,101723.22
2023-02-16T23:13:13.065Z,101724.94
2023-02-16T23:15:45.676Z,101723.94
2023-02-16T23:18:18.240Z,101726.59
2023-02-16T23:20:51.115Z,101733.66
2023-02-16T23:23:23.687Z,101730.16
2023-02-16T23:25:56.172Z,101733.66
2023-02-16T23:28:28.760Z,101745.16
2023-02-16T23:31:01.567Z,101739.75
2023-02-16T23:33:34.428Z,101743.31
2023-02-16T23:36:07.695Z,101740.66
2023-02-16T23:38:40.712Z,101740.75
2023-02-16T23:41:15.655Z,101751.28
2023-02-16T23:43:48.224Z,101739.06
2023-02-16T23:46:20.926Z,101744.38
2023-02-16T23:48:53.590Z,101730.97
2023-02-16T23:51:27.107Z,101731.91
2023-02-16T23:53:59.622Z,101722.19
2023-02-16T23:56:32.243Z,101720.34
2023-02-16T23:59:05.217Z,101720.44
